Etusivu
METAR-TAF:

METAR-TAF

Lentoasemat :

Taškent, Uzbekistan

Leveyspiiri: 41-16N, Pituuspiiri: 069-16E, korkeus merenpinnasta: 489 m

Tämänhetkinen sää

Tämä raportti tehtiin 30 minuuttia sitten, kello 18.30 UTC
Tuuli 8 kn etelästä/kaakosta
Lämpötila 26°C
Kosteus 51%
Ilmanpaine 1007 hPa
Näkyvyys 10 km tai enemmän
ei pilviä alle 1500 m:ssä eikä cumulonimbus-pilviä

METAR: UTTT 281830Z 15008KT CAVOK 26/15 Q1007 R08R/CLRD70 NOSIG

Aika: 00:00 (19:00 UTC)

Sääennuste

Tämä raportti tehtiin 2 tuntia ja 0 minuuttia sitten, kello 17.00 UTC
Ennuste voimassa 28. päivästä klo 18 UTC - 29. päivään klo 18 UTC
Tuuli 12 kn idästä
Näkyvyys: 7000 m

TAF: UTTT 281700Z 2818/2918 08012KT 7000 NSC TX35/2910Z

Säähavainnot ja -ennusteet yli 4000 lentoasemalta (METAR- ja TAF-raportit).

Käytössä olevat sääasemat on merkitty karttaan keltaisilla ja punaisilla pisteillä.

Aseta hiiri pisteen päälle nähdäksesi sääaseman nimen.

Klikkaa sitten nähdäksesi säähavainnot ja -ennusteet.

Kartan vaihtaminen: klikkaa mustalla rastilla varustettuja vihreitä pisteitä, niin voit zoomata sisään; viivalla varustettua vihreää pistettä, niin voit zoomata ulos tai vihreitä nuolia, niin pääset viereisille kartoille.


METAR-TAF: